Terminal Aerodrome Forecast
Issued by NWS Chicago, IL

Home | Current Version | Previous Version | Text Only | Print | Product List | Glossary Off
Versions: 1 2 3 4 5 6 7 8 9 10 11 12 13 14 15 16 17 18 19 20 21 22 23 24 25 26 27 28 29 30 31 32

000
FTUS43 KLOT 131600 AAB
TAFRFD
TAF AMD
KRFD 131605Z 1316/1412 03006KT 6SM BR SCT006 BKN100
     FM131700 05006KT 5SM BR BKN006
     FM131800 09008KT 3SM SHRA VCTS BKN006 OVC025CB
      TEMPO 1319/1323 2SM TSRA BR BKN007CB
     FM132300 15012KT 4SM SHRA VCTS OVC007CB
      TEMPO 1323/1403 2SM TSRA BR OVC007CB
     FM140300 02016G24KT 4SM RA BR OVC009=

USA.gov is the U.S. government's official web portal to all federal, state and local government web resources and services.